Time;durP1;ratioP1;P1;durP2;ratioP2;P2;SDS_P1;SDS_P2;PMS_P1;PMS_P2;Temp;Humidity;BMP_temperature;BMP_pressure;BME280_temperature;BME280_humidity;BME280_pressure;Samples;Min_cycle;Max_cycle;Signal;HPM_P1;HPM_P2
2022/03/07 00:00:10;;;;;;;21.65;13.23;;;;;;;;;;5017467;28;20373;-70
2022/03/07 00:02:36;;;;;;;26.00;13.18;;;;;;;;;;5035598;28;20096;-70
2022/03/07 00:05:02;;;;;;;26.33;14.30;;;;;;;;;;5017482;28;20081;-70
2022/03/07 00:07:28;;;;;;;24.58;13.40;;;;;;;;;;5017446;28;20049;-70
2022/03/07 00:09:54;;;;;;;22.50;13.30;;;;;;;;;;5035121;28;20033;-70
2022/03/07 00:12:20;;;;;;;22.88;12.77;;;;;;;;;;5035209;28;20037;-70
2022/03/07 00:14:46;;;;;;;29.13;13.63;;;;;;;;;;5034771;28;20044;-70
2022/03/07 00:17:12;;;;;;;24.02;12.68;;;;;;;;;;5017650;28;20492;-70
2022/03/07 00:19:38;;;;;;;25.15;12.95;;;;;;;;;;5023142;28;20094;-70
2022/03/07 00:22:04;;;;;;;26.33;13.18;;;;;;;;;;5047220;28;20059;-70
2022/03/07 00:24:30;;;;;;;20.20;11.57;;;;;;;;;;5056971;28;20048;-70
2022/03/07 00:26:56;;;;;;;23.70;12.73;;;;;;;;;;5057378;28;20055;-70
2022/03/07 00:29:22;;;;;;;23.90;12.52;;;;;;;;;;5057025;28;20084;-71
2022/03/07 00:31:48;;;;;;;24.42;12.63;;;;;;;;;;5057106;28;20499;-70
2022/03/07 00:34:15;;;;;;;26.80;13.88;;;;;;;;;;5074452;28;20045;-69
2022/03/07 00:36:41;;;;;;;23.05;12.18;;;;;;;;;;5056608;28;20067;-70
2022/03/07 00:39:06;;;;;;;29.25;12.95;;;;;;;;;;5056595;28;20037;-70
2022/03/07 00:41:33;;;;;;;28.83;13.32;;;;;;;;;;5056645;28;20380;-70
2022/03/07 00:43:59;;;;;;;21.90;11.60;;;;;;;;;;5056413;28;20102;-70
2022/03/07 00:46:25;;;;;;;22.90;11.98;;;;;;;;;;5056384;28;20442;-70
2022/03/07 00:48:51;;;;;;;21.25;11.63;;;;;;;;;;5056234;28;20127;-70
2022/03/07 00:51:17;;;;;;;24.15;11.55;;;;;;;;;;5074219;28;20047;-70
2022/03/07 00:53:42;;;;;;;22.02;12.05;;;;;;;;;;5074107;28;20080;-69
2022/03/07 00:56:10;;;;;;;22.17;11.93;;;;;;;;;;5073858;28;20076;-70
2022/03/07 00:58:36;;;;;;;25.63;13.15;;;;;;;;;;5073714;28;20102;-71
2022/03/07 01:01:02;;;;;;;21.48;11.48;;;;;;;;;;5073795;28;20483;-70
2022/03/07 01:03:28;;;;;;;23.23;12.32;;;;;;;;;;5073953;28;20044;-71
2022/03/07 01:05:54;;;;;;;25.23;11.57;;;;;;;;;;5055797;28;20055;-70
2022/03/07 01:08:20;;;;;;;26.60;12.07;;;;;;;;;;5073714;28;20037;-70
2022/03/07 01:10:47;;;;;;;21.80;11.50;;;;;;;;;;5073808;28;20162;-70
2022/03/07 01:13:13;;;;;;;23.95;12.50;;;;;;;;;;5073661;28;20048;-71
2022/03/07 01:15:39;;;;;;;22.42;11.68;;;;;;;;;;5073556;28;20044;-70
2022/03/07 01:18:05;;;;;;;19.90;11.18;;;;;;;;;;5073528;28;20040;-70
2022/03/07 01:20:32;;;;;;;21.27;12.30;;;;;;;;;;5055687;28;20444;-70
2022/03/07 01:22:58;;;;;;;24.85;12.18;;;;;;;;;;5073868;28;20041;-70
2022/03/07 01:25:25;;;;;;;24.05;11.77;;;;;;;;;;5073368;28;20510;-70
2022/03/07 01:27:51;;;;;;;21.70;12.52;;;;;;;;;;5073342;28;20051;-72
2022/03/07 01:30:17;;;;;;;23.13;11.75;;;;;;;;;;5073523;28;20036;-70
2022/03/07 01:32:43;;;;;;;25.55;11.38;;;;;;;;;;5073345;28;20044;-70
2022/03/07 01:35:09;;;;;;;24.63;11.68;;;;;;;;;;5073615;28;20048;-70
2022/03/07 01:37:35;;;;;;;19.77;11.68;;;;;;;;;;5073319;28;20062;-70
2022/03/07 01:40:01;;;;;;;20.27;10.88;;;;;;;;;;5073045;28;20123;-70
2022/03/07 01:42:27;;;;;;;23.50;12.10;;;;;;;;;;5072917;28;20048;-70
2022/03/07 01:44:53;;;;;;;20.63;11.50;;;;;;;;;;5073250;28;20186;-70
2022/03/07 01:47:19;;;;;;;24.48;11.48;;;;;;;;;;5071936;28;20082;-70
2022/03/07 01:49:45;;;;;;;24.48;12.18;;;;;;;;;;5054692;28;20055;-69
2022/03/07 01:52:12;;;;;;;18.02;10.63;;;;;;;;;;5072966;28;20040;-72
2022/03/07 01:54:38;;;;;;;19.58;10.45;;;;;;;;;;5073086;28;20044;-70
2022/03/07 01:57:04;;;;;;;26.70;12.32;;;;;;;;;;5073041;28;20044;-70
2022/03/07 01:59:33;;;;;;;22.45;13.23;;;;;;;;;;5055103;28;20446;-70
2022/03/07 02:02:00;;;;;;;20.08;11.38;;;;;;;;;;5073295;28;20451;-70
2022/03/07 02:04:26;;;;;;;22.52;11.98;;;;;;;;;;5073052;28;20053;-70
2022/03/07 02:06:52;;;;;;;22.98;11.65;;;;;;;;;;5073006;28;20510;-69
2022/03/07 02:09:18;;;;;;;20.58;11.80;;;;;;;;;;5073280;28;20044;-70
2022/03/07 02:11:44;;;;;;;23.20;12.43;;;;;;;;;;5072973;28;20463;-70
2022/03/07 02:14:12;;;;;;;22.55;12.43;;;;;;;;;;5057499;28;20403;-72
2022/03/07 02:16:38;;;;;;;20.95;10.90;;;;;;;;;;5072968;28;20055;-70
2022/03/07 02:19:04;;;;;;;39.35;13.43;;;;;;;;;;5054868;28;20041;-70
2022/03/07 02:21:32;;;;;;;36.08;12.52;;;;;;;;;;5072796;28;20041;-70
2022/03/07 02:23:58;;;;;;;28.50;12.73;;;;;;;;;;5054642;28;20052;-70
2022/03/07 02:26:24;;;;;;;30.33;13.25;;;;;;;;;;5072806;28;20087;-71
2022/03/07 02:28:50;;;;;;;31.15;12.63;;;;;;;;;;5073091;28;20068;-71
2022/03/07 02:31:17;;;;;;;35.83;13.63;;;;;;;;;;5054937;28;20514;-70
2022/03/07 02:33:43;;;;;;;28.30;13.07;;;;;;;;;;5055086;28;20403;-71
2022/03/07 02:36:09;;;;;;;25.23;12.05;;;;;;;;;;5054817;28;20051;-71
2022/03/07 02:38:35;;;;;;;26.00;13.75;;;;;;;;;;5072445;28;20375;-71
2022/03/07 02:41:01;;;;;;;24.40;12.10;;;;;;;;;;5072872;28;20047;-71
2022/03/07 02:43:27;;;;;;;28.35;13.10;;;;;;;;;;5054897;28;20430;-70
2022/03/07 02:45:55;;;;;;;25.73;12.18;;;;;;;;;;5054957;28;20110;-71
2022/03/07 02:48:21;;;;;;;27.98;13.50;;;;;;;;;;5072876;28;20049;-71
2022/03/07 02:50:47;;;;;;;25.13;12.55;;;;;;;;;;5073393;28;20044;-70
2022/03/07 02:53:14;;;;;;;26.30;11.32;;;;;;;;;;5075934;28;20041;-70
2022/03/07 02:55:40;;;;;;;25.85;12.75;;;;;;;;;;5074607;28;20488;-71
2022/03/07 02:58:06;;;;;;;26.88;12.75;;;;;;;;;;5072826;28;20135;-71
2022/03/07 03:00:32;;;;;;;27.25;12.02;;;;;;;;;;5072517;28;20048;-71
2022/03/07 03:02:58;;;;;;;22.90;12.55;;;;;;;;;;5076104;28;20127;-70
2022/03/07 03:05:25;;;;;;;27.08;12.25;;;;;;;;;;5076300;28;20041;-70
2022/03/07 03:07:51;;;;;;;28.98;13.05;;;;;;;;;;5075966;28;20045;-71
2022/03/07 03:10:17;;;;;;;22.80;12.50;;;;;;;;;;5076060;28;20380;-70
2022/03/07 03:12:44;;;;;;;21.42;11.80;;;;;;;;;;5058247;28;20040;-70
2022/03/07 03:15:10;;;;;;;30.73;13.77;;;;;;;;;;5076008;28;20044;-71
2022/03/07 03:17:38;;;;;;;22.92;12.43;;;;;;;;;;5076419;28;20395;-70
2022/03/07 03:20:05;;;;;;;28.13;14.13;;;;;;;;;;5075844;28;20403;-70
2022/03/07 03:22:31;;;;;;;23.98;12.52;;;;;;;;;;5075703;28;20041;-70
2022/03/07 03:24:57;;;;;;;27.95;13.13;;;;;;;;;;5075996;28;20094;-70
2022/03/07 03:27:23;;;;;;;24.20;13.13;;;;;;;;;;5075997;28;20434;-71
2022/03/07 03:29:49;;;;;;;24.52;13.13;;;;;;;;;;5076035;28;20086;-69
2022/03/07 03:32:15;;;;;;;30.30;14.85;;;;;;;;;;5075851;28;20394;-71
2022/03/07 03:34:41;;;;;;;26.40;13.68;;;;;;;;;;5075870;28;20380;-71
2022/03/07 03:37:07;;;;;;;26.08;13.48;;;;;;;;;;5075796;28;20517;-70
2022/03/07 03:39:33;;;;;;;24.13;13.10;;;;;;;;;;5075673;28;20123;-70
2022/03/07 03:41:59;;;;;;;27.80;14.02;;;;;;;;;;5057591;28;20048;-69
2022/03/07 03:44:25;;;;;;;28.98;13.32;;;;;;;;;;5075458;28;20410;-70
2022/03/07 03:46:51;;;;;;;24.48;12.73;;;;;;;;;;5057556;28;20045;-70
2022/03/07 03:49:17;;;;;;;23.30;12.98;;;;;;;;;;5057301;28;20044;-71
2022/03/07 03:51:43;;;;;;;21.15;12.07;;;;;;;;;;5057463;28;20080;-71
2022/03/07 03:54:09;;;;;;;28.45;13.30;;;;;;;;;;5075424;28;20098;-70
2022/03/07 03:56:36;;;;;;;41.47;15.68;;;;;;;;;;5057217;28;20115;-70
2022/03/07 03:59:02;;;;;;;30.52;14.15;;;;;;;;;;5075216;28;20132;-71
2022/03/07 04:01:28;;;;;;;34.13;14.13;;;;;;;;;;5075488;28;20090;-70
2022/03/07 04:03:54;;;;;;;23.67;12.30;;;;;;;;;;5056927;28;20048;-70
2022/03/07 04:06:20;;;;;;;28.10;14.05;;;;;;;;;;5057113;28;20067;-71
2022/03/07 04:08:49;;;;;;;29.15;14.20;;;;;;;;;;5075041;28;20044;-70
2022/03/07 04:11:15;;;;;;;23.73;11.93;;;;;;;;;;5075119;28;20380;-71
2022/03/07 04:13:42;;;;;;;32.13;14.80;;;;;;;;;;5056493;28;20404;-70
2022/03/07 04:16:08;;;;;;;24.80;12.85;;;;;;;;;;5056774;28;20396;-70
2022/03/07 04:18:34;;;;;;;29.23;14.65;;;;;;;;;;5074630;28;20047;-70
2022/03/07 04:21:00;;;;;;;29.65;13.60;;;;;;;;;;5057066;28;20048;-70
2022/03/07 04:23:26;;;;;;;24.20;13.20;;;;;;;;;;5056755;28;20040;-70
2022/03/07 04:25:52;;;;;;;23.95;14.23;;;;;;;;;;5074770;28;20052;-70
2022/03/07 04:28:18;;;;;;;27.35;13.95;;;;;;;;;;5056831;28;20503;-70
2022/03/07 04:30:44;;;;;;;31.25;15.00;;;;;;;;;;5074821;28;20071;-70
2022/03/07 04:33:11;;;;;;;26.27;13.52;;;;;;;;;;5074486;28;20431;-70
2022/03/07 04:35:37;;;;;;;25.75;12.77;;;;;;;;;;5074451;28;20411;-71
2022/03/07 04:38:03;;;;;;;26.73;13.93;;;;;;;;;;5075094;28;20052;-71
2022/03/07 04:40:29;;;;;;;32.00;13.80;;;;;;;;;;5056372;28;20068;-71
2022/03/07 04:42:58;;;;;;;28.55;13.98;;;;;;;;;;5074610;28;20050;-70
2022/03/07 04:45:25;;;;;;;29.38;14.40;;;;;;;;;;5074523;28;20050;-70
2022/03/07 04:47:51;;;;;;;26.98;14.25;;;;;;;;;;5074264;28;20048;-69
2022/03/07 04:50:17;;;;;;;25.35;13.60;;;;;;;;;;5056798;28;20067;-70
2022/03/07 04:52:43;;;;;;;30.25;14.88;;;;;;;;;;5056828;28;20063;-70
2022/03/07 04:55:10;;;;;;;29.48;14.75;;;;;;;;;;5056445;28;20517;-72
2022/03/07 04:57:36;;;;;;;28.40;14.55;;;;;;;;;;5074698;28;20051;-69
2022/03/07 05:00:03;;;;;;;34.38;16.25;;;;;;;;;;5074377;28;20131;-69
2022/03/07 05:02:29;;;;;;;30.80;14.98;;;;;;;;;;5056472;28;20049;-70
2022/03/07 05:04:55;;;;;;;29.30;14.82;;;;;;;;;;5075342;28;20048;-70
2022/03/07 05:07:21;;;;;;;29.00;14.32;;;;;;;;;;5056504;28;20127;-70
2022/03/07 05:09:47;;;;;;;32.70;13.95;;;;;;;;;;5073934;28;20052;-70
2022/03/07 05:12:13;;;;;;;20.33;12.85;;;;;;;;;;5073988;28;20558;-70
2022/03/07 05:14:39;;;;;;;29.95;14.23;;;;;;;;;;5056324;28;20044;-70
2022/03/07 05:17:05;;;;;;;32.45;15.73;;;;;;;;;;5055842;28;20055;-70
2022/03/07 05:19:32;;;;;;;31.15;15.82;;;;;;;;;;5074214;28;20071;-70
2022/03/07 05:21:58;;;;;;;30.52;15.05;;;;;;;;;;5055892;28;20044;-70
2022/03/07 05:24:25;;;;;;;27.65;14.65;;;;;;;;;;5073292;28;20044;-70
2022/03/07 05:26:51;;;;;;;23.65;13.98;;;;;;;;;;5073534;28;20415;-70
2022/03/07 05:29:17;;;;;;;41.55;16.30;;;;;;;;;;5073830;28;20047;-70
2022/03/07 05:31:43;;;;;;;39.47;16.98;;;;;;;;;;5073789;28;20040;-70
2022/03/07 05:34:09;;;;;;;32.40;15.65;;;;;;;;;;5055576;28;20545;-70
2022/03/07 05:36:36;;;;;;;34.40;15.75;;;;;;;;;;5073614;28;20170;-70
2022/03/07 05:39:03;;;;;;;31.15;15.60;;;;;;;;;;5055818;28;20101;-70
2022/03/07 05:41:29;;;;;;;34.58;16.95;;;;;;;;;;5073458;28;20442;-70
2022/03/07 05:43:55;;;;;;;36.40;16.08;;;;;;;;;;5073592;28;20052;-71
2022/03/07 05:46:21;;;;;;;39.38;16.35;;;;;;;;;;5073498;28;20051;-71
2022/03/07 05:48:47;;;;;;;30.73;15.35;;;;;;;;;;5055191;28;20044;-70
2022/03/07 05:51:13;;;;;;;51.80;17.55;;;;;;;;;;5073471;28;20177;-71
2022/03/07 05:53:39;;;;;;;32.95;16.13;;;;;;;;;;5073233;28;20094;-70
2022/03/07 05:56:05;;;;;;;25.75;14.02;;;;;;;;;;5073321;28;20036;-70
2022/03/07 05:58:31;;;;;;;34.35;16.45;;;;;;;;;;5073177;28;20052;-70
2022/03/07 06:00:57;;;;;;;38.80;18.33;;;;;;;;;;5073119;28;20127;-70
2022/03/07 06:03:23;;;;;;;37.70;17.63;;;;;;;;;;5073543;28;20550;-70
2022/03/07 06:05:49;;;;;;;39.25;17.10;;;;;;;;;;5057349;28;20052;-70
2022/03/07 06:08:15;;;;;;;43.63;17.25;;;;;;;;;;5073244;28;20123;-70
2022/03/07 06:10:41;;;;;;;34.83;17.15;;;;;;;;;;5073448;28;20048;-70
2022/03/07 06:13:07;;;;;;;41.35;18.48;;;;;;;;;;5054961;28;20045;-71
2022/03/07 06:15:33;;;;;;;40.60;17.35;;;;;;;;;;5072958;28;20079;-70
2022/03/07 06:17:59;;;;;;;54.42;19.33;;;;;;;;;;5073302;28;20098;-71
2022/03/07 06:20:26;;;;;;;57.70;19.65;;;;;;;;;;5073079;28;20048;-70
2022/03/07 06:22:52;;;;;;;35.42;17.58;;;;;;;;;;5072918;28;20041;-71
2022/03/07 06:25:18;;;;;;;38.22;17.88;;;;;;;;;;5072871;28;20138;-71
2022/03/07 06:27:44;;;;;;;38.20;17.98;;;;;;;;;;5072721;28;20173;-70
2022/03/07 06:30:10;;;;;;;35.30;18.08;;;;;;;;;;5054886;28;20046;-71
2022/03/07 06:32:36;;;;;;;33.60;16.77;;;;;;;;;;5072812;28;20147;-71
2022/03/07 06:35:03;;;;;;;63.80;21.17;;;;;;;;;;5072612;28;20067;-70
2022/03/07 06:37:29;;;;;;;58.90;21.67;;;;;;;;;;5076417;28;20122;-70
2022/03/07 06:39:55;;;;;;;83.57;24.83;;;;;;;;;;5058628;28;20082;-70
2022/03/07 06:42:22;;;;;;;57.22;20.13;;;;;;;;;;5076459;28;20526;-70
2022/03/07 06:44:48;;;;;;;55.05;19.38;;;;;;;;;;5076659;28;20131;-70
2022/03/07 06:47:16;;;;;;;62.80;20.05;;;;;;;;;;5076688;28;20457;-70
2022/03/07 06:49:42;;;;;;;46.28;17.50;;;;;;;;;;5076823;28;20051;-70
2022/03/07 06:52:08;;;;;;;69.68;21.98;;;;;;;;;;5076554;28;20124;-70
2022/03/07 06:54:35;;;;;;;45.78;19.90;;;;;;;;;;5076768;28;20036;-70
2022/03/07 06:57:02;;;;;;;56.97;21.63;;;;;;;;;;5076124;28;20106;-70
2022/03/07 06:59:28;;;;;;;66.68;22.50;;;;;;;;;;5076656;28;20071;-70
2022/03/07 07:01:54;;;;;;;63.97;21.13;;;;;;;;;;5076253;28;20487;-69
2022/03/07 07:04:20;;;;;;;75.78;22.90;;;;;;;;;;5076190;28;20056;-69
2022/03/07 07:06:46;;;;;;;36.28;15.30;;;;;;;;;;5076154;28;20041;-71
2022/03/07 07:09:12;;;;;;;47.65;18.38;;;;;;;;;;5076250;28;20495;-69
2022/03/07 07:11:38;;;;;;;87.43;24.75;;;;;;;;;;5075814;28;20044;-69
2022/03/07 07:14:04;;;;;;;43.63;18.35;;;;;;;;;;5075931;28;20045;-69
2022/03/07 07:16:30;;;;;;;32.20;15.85;;;;;;;;;;5076052;28;20044;-69
2022/03/07 07:18:56;;;;;;;80.22;22.45;;;;;;;;;;5076123;28;20048;-70
2022/03/07 07:21:22;;;;;;;46.15;20.35;;;;;;;;;;5058259;28;20052;-69
2022/03/07 07:23:48;;;;;;;76.65;25.10;;;;;;;;;;5076261;28;20040;-70
2022/03/07 07:26:14;;;;;;;56.30;22.48;;;;;;;;;;5074858;28;20048;-71
2022/03/07 07:28:40;;;;;;;95.60;28.73;;;;;;;;;;5076361;28;20445;-70
2022/03/07 07:31:06;;;;;;;114.35;32.53;;;;;;;;;;5076015;28;20097;-71
2022/03/07 07:33:32;;;;;;;95.97;29.15;;;;;;;;;;5075962;28;20045;-70
2022/03/07 07:35:58;;;;;;;65.00;24.08;;;;;;;;;;5075725;28;20048;-70
2022/03/07 07:38:24;;;;;;;55.88;21.20;;;;;;;;;;5075960;28;20053;-70
2022/03/07 07:40:51;;;;;;;44.63;20.27;;;;;;;;;;5058331;28;20052;-70
2022/03/07 07:43:17;;;;;;;48.28;20.17;;;;;;;;;;5076965;28;20402;-70
2022/03/07 07:45:43;;;;;;;42.25;18.75;;;;;;;;;;5076191;28;20049;-70
2022/03/07 07:48:09;;;;;;;39.80;17.40;;;;;;;;;;5056736;28;20049;-70
2022/03/07 07:50:35;;;;;;;39.13;17.08;;;;;;;;;;5058140;28;20423;-71
2022/03/07 07:53:01;;;;;;;34.90;16.08;;;;;;;;;;5058299;28;20049;-71
2022/03/07 07:55:27;;;;;;;39.92;17.15;;;;;;;;;;5057867;28;20052;-71
2022/03/07 07:57:53;;;;;;;41.90;17.85;;;;;;;;;;5057704;28;20488;-71
2022/03/07 08:00:19;;;;;;;39.38;16.65;;;;;;;;;;5063211;28;20041;-71
2022/03/07 08:02:49;;;;;;;28.73;15.07;;;;;;;;;;5037555;28;20496;-71
2022/03/07 08:05:16;;;;;;;31.73;15.75;;;;;;;;;;5038143;28;20530;-71
2022/03/07 08:07:42;;;;;;;43.47;17.10;;;;;;;;;;5055780;28;20041;-72
2022/03/07 08:10:09;;;;;;;41.30;17.25;;;;;;;;;;5055606;28;20073;-70
2022/03/07 08:12:35;;;;;;;31.98;15.60;;;;;;;;;;5055329;28;20044;-73
2022/03/07 08:15:05;;;;;;;28.05;15.10;;;;;;;;;;5055250;28;20519;-71
2022/03/07 08:17:31;;;;;;;27.90;15.30;;;;;;;;;;5055530;28;20049;-71
2022/03/07 08:19:57;;;;;;;32.38;14.60;;;;;;;;;;5037115;28;20056;-71
2022/03/07 08:22:23;;;;;;;25.90;13.98;;;;;;;;;;5054727;28;20037;-73
2022/03/07 08:24:49;;;;;;;34.10;15.15;;;;;;;;;;5037162;28;20044;-72
2022/03/07 08:27:15;;;;;;;38.53;16.23;;;;;;;;;;5055280;28;20049;-72
2022/03/07 08:29:41;;;;;;;26.50;14.52;;;;;;;;;;5055007;28;20100;-74
2022/03/07 08:32:07;;;;;;;26.58;14.77;;;;;;;;;;5054684;28;20075;-74
2022/03/07 08:34:35;;;;;;;25.27;13.50;;;;;;;;;;5036815;28;20049;-75
2022/03/07 08:37:01;;;;;;;21.95;12.65;;;;;;;;;;5054478;28;20446;-74
2022/03/07 08:39:27;;;;;;;24.85;12.30;;;;;;;;;;5054724;28;20056;-71
2022/03/07 08:41:53;;;;;;;24.55;12.73;;;;;;;;;;5036819;28;20110;-72
2022/03/07 08:44:19;;;;;;;27.27;13.25;;;;;;;;;;5054466;28;20132;-71
2022/03/07 08:46:45;;;;;;;27.33;13.90;;;;;;;;;;5054430;28;20475;-71
2022/03/07 08:49:11;;;;;;;26.10;13.10;;;;;;;;;;5036729;28;20052;-72
2022/03/07 08:51:39;;;;;;;22.10;13.23;;;;;;;;;;5054143;28;20411;-71
2022/03/07 08:54:05;;;;;;;24.70;13.88;;;;;;;;;;5054339;28;20048;-72
2022/03/07 08:56:31;;;;;;;24.42;13.02;;;;;;;;;;5036476;28;20041;-71
2022/03/07 08:58:57;;;;;;;20.67;12.73;;;;;;;;;;5054276;28;20511;-71
2022/03/07 09:01:23;;;;;;;24.20;12.18;;;;;;;;;;5054082;28;20114;-71
2022/03/07 09:03:49;;;;;;;20.20;12.38;;;;;;;;;;5037813;28;20072;-71
2022/03/07 09:06:15;;;;;;;26.80;12.77;;;;;;;;;;5055335;28;20072;-72
2022/03/07 09:08:41;;;;;;;18.63;10.73;;;;;;;;;;5054587;28;20055;-72
2022/03/07 09:11:07;;;;;;;20.65;9.95;;;;;;;;;;5019860;28;20045;-71
2022/03/07 09:13:33;;;;;;;25.02;11.05;;;;;;;;;;5054307;28;20491;-71
2022/03/07 09:15:59;;;;;;;25.13;11.45;;;;;;;;;;5037164;28;20102;-71
2022/03/07 09:18:26;;;;;;;17.52;7.78;;;;;;;;;;5057607;28;20080;-72
2022/03/07 09:20:52;;;;;;;13.95;6.90;;;;;;;;;;5055604;28;20048;-71
2022/03/07 09:23:18;;;;;;;18.58;5.50;;;;;;;;;;5053800;28;20056;-71
2022/03/07 09:25:44;;;;;;;9.75;4.82;;;;;;;;;;5054024;28;20045;-71
2022/03/07 09:28:10;;;;;;;14.68;6.00;;;;;;;;;;5036077;28;20120;-71
2022/03/07 09:30:36;;;;;;;13.85;5.38;;;;;;;;;;5054303;28;20049;-71
2022/03/07 09:33:03;;;;;;;11.40;5.05;;;;;;;;;;5054497;28;20051;-72
2022/03/07 09:35:30;;;;;;;19.02;6.22;;;;;;;;;;5053660;28;20049;-71
2022/03/07 09:37:57;;;;;;;10.90;4.65;;;;;;;;;;5047744;28;20140;-71
2022/03/07 09:40:23;;;;;;;9.30;3.50;;;;;;;;;;5033535;28;20488;-71
2022/03/07 09:42:49;;;;;;;9.15;3.75;;;;;;;;;;5036861;28;20123;-70
2022/03/07 09:45:15;;;;;;;15.40;6.03;;;;;;;;;;5048053;28;20084;-71
2022/03/07 09:47:45;;;;;;;9.30;4.10;;;;;;;;;;5042557;28;20076;-71
2022/03/07 09:50:11;;;;;;;9.07;4.07;;;;;;;;;;5035481;28;20045;-71
2022/03/07 09:52:37;;;;;;;7.53;3.63;;;;;;;;;;5018623;28;20124;-73
2022/03/07 09:55:04;;;;;;;7.18;2.90;;;;;;;;;;5020352;28;20049;-73
2022/03/07 09:57:32;;;;;;;12.52;4.25;;;;;;;;;;5036949;28;20049;-71
2022/03/07 09:59:58;;;;;;;17.05;5.22;;;;;;;;;;5034644;28;20057;-73
2022/03/07 10:02:25;;;;;;;19.35;6.25;;;;;;;;;;5033952;28;20045;-73
2022/03/07 10:04:52;;;;;;;9.68;4.68;;;;;;;;;;5036260;28;20084;-72
2022/03/07 10:07:18;;;;;;;13.88;6.03;;;;;;;;;;5036083;28;20136;-74
2022/03/07 10:09:44;;;;;;;22.92;7.97;;;;;;;;;;5033301;28;20053;-75
2022/03/07 10:12:10;;;;;;;23.83;8.15;;;;;;;;;;5015442;28;20046;-74
2022/03/07 10:14:46;;;;;;;18.63;6.35;;;;;;;;;;5016337;28;20059;-75
2022/03/07 10:17:26;;;;;;;9.80;5.10;;;;;;;;;;5033849;28;20049;-75
2022/03/07 10:19:53;;;;;;;11.57;4.70;;;;;;;;;;5015770;28;20489;-74
2022/03/07 10:22:22;;;;;;;13.32;6.25;;;;;;;;;;5033231;28;20443;-74
2022/03/07 10:25:09;;;;;;;13.95;5.93;;;;;;;;;;5033877;28;20069;-74
2022/03/07 10:27:37;;;;;;;11.73;6.55;;;;;;;;;;5034046;28;20092;-72
2022/03/07 10:30:04;;;;;;;18.00;7.00;;;;;;;;;;5016695;28;20053;-75
2022/03/07 10:32:30;;;;;;;16.58;6.57;;;;;;;;;;5033652;28;20373;-74
2022/03/07 10:34:56;;;;;;;19.15;7.07;;;;;;;;;;5012616;28;20054;-74
2022/03/07 10:37:52;;;;;;;18.35;8.23;;;;;;;;;;5013984;28;20085;-73
2022/03/07 10:40:19;;;;;;;15.63;8.10;;;;;;;;;;5001091;28;20050;-73
2022/03/07 10:42:46;;;;;;;18.15;6.82;;;;;;;;;;5017837;28;20408;-73
2022/03/07 10:45:12;;;;;;;32.50;9.20;;;;;;;;;;5021896;28;20041;-73
2022/03/07 10:47:38;;;;;;;15.60;6.57;;;;;;;;;;5025122;28;20041;-73
2022/03/07 10:50:04;;;;;;;21.95;8.57;;;;;;;;;;5024477;28;20052;-73
2022/03/07 10:52:35;;;;;;;12.15;6.75;;;;;;;;;;5016940;28;20133;-73
2022/03/07 10:55:01;;;;;;;10.80;6.57;;;;;;;;;;5012327;28;20052;-74
2022/03/07 10:57:27;;;;;;;21.90;8.43;;;;;;;;;;5013655;28;20129;-74
2022/03/07 10:59:52;;;;;;;13.48;6.97;;;;;;;;;;5013620;28;20128;-73
2022/03/07 11:02:19;;;;;;;14.80;6.57;;;;;;;;;;5013310;28;20061;-75
2022/03/07 11:04:46;;;;;;;14.73;6.63;;;;;;;;;;5012116;28;20503;-74
2022/03/07 11:07:13;;;;;;;14.13;6.43;;;;;;;;;;5013492;28;20052;-74
2022/03/07 11:09:40;;;;;;;13.35;7.55;;;;;;;;;;5013568;28;20046;-75
2022/03/07 11:12:06;;;;;;;34.70;10.35;;;;;;;;;;5013503;28;20049;-74
2022/03/07 11:14:33;;;;;;;35.60;10.13;;;;;;;;;;5013369;28;20041;-75
2022/03/07 11:17:00;;;;;;;9.10;5.30;;;;;;;;;;5013278;28;20477;-73
2022/03/07 11:19:27;;;;;;;19.02;7.32;;;;;;;;;;5018049;28;20053;-73
2022/03/07 11:21:54;;;;;;;29.73;8.43;;;;;;;;;;5015453;28;20108;-75
2022/03/07 11:24:21;;;;;;;55.03;13.52;;;;;;;;;;5022187;28;20045;-73
2022/03/07 11:26:48;;;;;;;62.95;12.68;;;;;;;;;;5015793;28;20054;-73
2022/03/07 11:29:15;;;;;;;18.85;6.90;;;;;;;;;;5016693;28;20042;-75
2022/03/07 11:31:41;;;;;;;34.42;9.88;;;;;;;;;;5015593;28;20049;-76
2022/03/07 11:34:08;;;;;;;15.32;6.20;;;;;;;;;;5016762;28;20132;-75
2022/03/07 11:36:39;;;;;;;8.68;4.25;;;;;;;;;;5035465;28;20053;-73
2022/03/07 11:39:06;;;;;;;8.68;4.50;;;;;;;;;;5042307;28;20049;-73
2022/03/07 11:41:39;;;;;;;8.52;4.13;;;;;;;;;;5035533;28;20081;-73
2022/03/07 11:44:14;;;;;;;9.90;4.30;;;;;;;;;;5053627;28;20120;-73
2022/03/07 11:46:42;;;;;;;14.65;5.03;;;;;;;;;;5055713;28;20045;-74
2022/03/07 11:49:10;;;;;;;14.07;4.40;;;;;;;;;;5056297;28;20045;-73
2022/03/07 11:51:37;;;;;;;9.73;4.40;;;;;;;;;;5055972;28;20045;-73
2022/03/07 11:54:03;;;;;;;5.85;4.20;;;;;;;;;;5037915;28;20052;-74
2022/03/07 11:56:33;;;;;;;16.02;5.57;;;;;;;;;;5055883;28;20037;-73
2022/03/07 11:59:00;;;;;;;17.20;5.25;;;;;;;;;;5055892;28;20049;-76
2022/03/07 12:01:26;;;;;;;8.48;4.85;;;;;;;;;;5056125;28;20044;-75
2022/03/07 12:03:53;;;;;;;22.40;7.45;;;;;;;;;;5055813;28;20049;-74
2022/03/07 12:06:20;;;;;;;8.38;5.00;;;;;;;;;;5055811;28;20052;-74
2022/03/07 12:08:50;;;;;;;7.32;4.38;;;;;;;;;;5055836;28;20048;-74
2022/03/07 12:11:31;;;;;;;7.78;4.57;;;;;;;;;;5055634;28;20041;-74
2022/03/07 12:14:02;;;;;;;10.65;4.53;;;;;;;;;;5055486;28;20053;-74
2022/03/07 12:16:39;;;;;;;11.93;5.50;;;;;;;;;;5055675;28;20045;-74
2022/03/07 12:19:06;;;;;;;14.50;5.30;;;;;;;;;;5055223;28;20544;-74
2022/03/07 12:21:32;;;;;;;8.85;4.53;;;;;;;;;;5055819;28;20048;-74
2022/03/07 12:23:59;;;;;;;12.48;5.10;;;;;;;;;;5055252;28;20063;-75
2022/03/07 12:26:25;;;;;;;8.05;4.30;;;;;;;;;;5020411;28;20049;-74
2022/03/07 12:28:51;;;;;;;13.05;4.72;;;;;;;;;;5037728;28;20041;-75
2022/03/07 12:31:17;;;;;;;7.28;4.30;;;;;;;;;;5055631;28;20141;-75
2022/03/07 12:33:46;;;;;;;8.75;4.38;;;;;;;;;;5054819;28;20080;-74
2022/03/07 12:36:15;;;;;;;12.40;5.25;;;;;;;;;;5037324;28;20088;-73
2022/03/07 12:38:48;;;;;;;9.30;4.45;;;;;;;;;;5054836;28;20053;-73
2022/03/07 12:41:15;;;;;;;5.15;4.18;;;;;;;;;;5037240;28;20041;-74
2022/03/07 12:43:43;;;;;;;7.03;4.50;;;;;;;;;;5056589;28;20095;-74
2022/03/07 12:46:10;;;;;;;;;;;;;;;;;;5057060;28;20128;-74
2022/03/07 12:48:37;;;;;;;7.65;4.15;;;;;;;;;;5037427;28;19927;-75
2022/03/07 12:51:07;;;;;;;13.63;5.18;;;;;;;;;;5037290;28;20053;-75
2022/03/07 12:53:34;;;;;;;10.75;4.38;;;;;;;;;;5055236;28;20127;-75
2022/03/07 12:56:03;;;;;;;20.55;6.10;;;;;;;;;;5055089;28;20420;-75
2022/03/07 12:58:30;;;;;;;7.65;4.00;;;;;;;;;;5054773;28;20080;-74
2022/03/07 13:00:57;;;;;;;9.55;4.63;;;;;;;;;;5037041;28;20396;-74
2022/03/07 13:03:24;;;;;;;10.18;4.22;;;;;;;;;;5055065;28;20155;-74
2022/03/07 13:06:02;;;;;;;7.47;3.85;;;;;;;;;;5054413;28;20076;-75
2022/03/07 13:08:28;;;;;;;10.55;4.50;;;;;;;;;;5037150;28;20053;-74
2022/03/07 13:10:54;;;;;;;6.50;3.10;;;;;;;;;;5054585;28;20044;-74
2022/03/07 13:13:20;;;;;;;5.63;3.40;;;;;;;;;;5054979;28;20037;-75
2022/03/07 13:15:48;;;;;;;4.15;2.95;;;;;;;;;;5054419;28;20041;-73
2022/03/07 13:18:14;;;;;;;5.97;3.20;;;;;;;;;;5054486;28;20049;-74
2022/03/07 13:20:40;;;;;;;8.10;2.83;;;;;;;;;;5054742;28;20090;-74
2022/03/07 13:23:07;;;;;;;9.30;3.50;;;;;;;;;;5054016;28;20070;-75
2022/03/07 13:25:40;;;;;;;29.17;7.70;;;;;;;;;;5053965;28;20052;-75
2022/03/07 13:28:06;;;;;;;26.27;7.47;;;;;;;;;;5053935;28;20399;-75
2022/03/07 13:30:33;;;;;;;9.35;4.57;;;;;;;;;;5035982;28;20071;-75
2022/03/07 13:33:03;;;;;;;10.52;4.30;;;;;;;;;;5035848;28;20045;-75
2022/03/07 13:35:30;;;;;;;11.27;3.90;;;;;;;;;;5054383;28;20053;-75
2022/03/07 13:37:56;;;;;;;7.47;3.40;;;;;;;;;;5036478;28;20084;-75
2022/03/07 13:40:36;;;;;;;6.20;2.95;;;;;;;;;;5054216;28;20045;-76
2022/03/07 13:43:03;;;;;;;6.50;3.10;;;;;;;;;;5054434;28;20438;-74
2022/03/07 13:45:30;;;;;;;15.13;4.30;;;;;;;;;;5053552;28;20076;-74
2022/03/07 13:48:08;;;;;;;13.68;4.53;;;;;;;;;;5035921;28;20059;-73
2022/03/07 13:50:34;;;;;;;17.50;5.20;;;;;;;;;;5053722;28;20543;-74
2022/03/07 13:53:03;;;;;;;14.23;4.07;;;;;;;;;;5053972;28;20051;-73
2022/03/07 13:55:32;;;;;;;7.65;3.17;;;;;;;;;;5053419;28;20400;-74
2022/03/07 13:58:00;;;;;;;7.57;2.92;;;;;;;;;;5054059;28;20059;-73
2022/03/07 14:00:27;;;;;;;6.05;3.10;;;;;;;;;;5053877;28;20447;-73
2022/03/07 14:02:57;;;;;;;5.40;3.08;;;;;;;;;;5053636;28;20122;-74
2022/03/07 14:05:23;;;;;;;9.15;3.20;;;;;;;;;;5053708;28;20488;-73
2022/03/07 14:07:55;;;;;;;7.00;3.63;;;;;;;;;;5053551;28;20087;-73
2022/03/07 14:10:22;;;;;;;17.77;5.90;;;;;;;;;;5053873;28;20048;-74
2022/03/07 14:12:52;;;;;;;11.75;4.82;;;;;;;;;;5053422;28;20098;-74
2022/03/07 14:15:23;;;;;;;6.53;2.83;;;;;;;;;;5053716;28;20368;-73
2022/03/07 14:17:55;;;;;;;8.73;3.40;;;;;;;;;;5053732;28;20084;-75
2022/03/07 14:20:21;;;;;;;7.40;2.95;;;;;;;;;;5053794;28;20052;-74